N`giva, Ondjiva Pereira Airport (FNGI)

NameOndjiva Pereira Airport
CityN`giva
CountryAngola
ICAOFNGI
IATAVPE
Altitude1087 m
CoordinatesGoogle Map
Live Air TrafficLiveATC.net
METARFNGI 081700Z 23007KT CAVOK 34/05 Q1011
2018-12-08 17:00:00 Wind: Southwest (230°) 3.6 m/s - Visibility: > 10000 m - Weather: CAVOK - Temperature: 34 °C - Dew point: 5 °C - Humidity: 16.2% - Pressure: 1011 hPa
Statistics

The table below shows the detailed information of all flights to/from N`giva, Ondjiva Pereira Airport (FNGI).